Time;durP1;ratioP1;P1;durP2;ratioP2;P2;SDS_P1;SDS_P2;PMS_P1;PMS_P2;Temp;Humidity;BMP_temperature;BMP_pressure;BME280_temperature;BME280_humidity;BME280_pressure;Samples;Min_cycle;Max_cycle;Signal;HPM_P1;HPM_P2
2023/06/19 00:00:43;;;;;;;;;6.25;5.00;;;;;23.58;58.98;100489.94;5035115;28;45323;-56
2023/06/19 00:03:09;;;;;;;;;6.75;5.75;;;;;23.57;59.42;100488.28;5035471;28;45330;-54
2023/06/19 00:05:34;;;;;;;;;6.25;6.25;;;;;23.57;59.91;100488.28;5035023;28;45309;-57
2023/06/19 00:08:00;;;;;;;;;6.00;5.50;;;;;23.58;59.47;100484.31;5034643;28;45880;-56
2023/06/19 00:10:25;;;;;;;;;7.75;6.50;;;;;23.58;59.35;100481.53;5035047;28;45398;-55
2023/06/19 00:12:51;;;;;;;;;10.00;8.75;;;;;23.60;58.95;100478.44;5035268;28;45403;-58
2023/06/19 00:15:17;;;;;;;;;6.00;6.00;;;;;23.57;58.84;100477.06;5034933;28;45371;-58
2023/06/19 00:17:42;;;;;;;;;8.00;7.00;;;;;23.55;59.14;100488.56;5035282;28;45915;-56
2023/06/19 00:20:08;;;;;;;;;5.00;5.00;;;;;23.53;58.87;100484.44;5034886;28;45359;-59
2023/06/19 00:22:34;;;;;;;;;8.00;7.20;;;;;23.50;59.28;100496.25;5033781;28;45534;-56
2023/06/19 00:24:59;;;;;;;;;5.00;5.00;;;;;23.36;59.71;100469.03;5050215;28;45517;-58
2023/06/19 00:27:26;;;;;;;;;8.75;7.25;;;;;23.48;59.12;100490.94;5033884;28;45998;-55
2023/06/19 00:29:51;;;;;;;;;7.00;7.00;;;;;23.38;59.40;100491.94;5033648;28;45414;-58
2023/06/19 00:32:17;;;;;;;;;7.00;6.75;;;;;23.47;59.85;100513.66;5049679;28;45456;-56
2023/06/19 00:34:42;;;;;;;;;7.00;7.00;;;;;23.47;59.51;100510.88;5033997;28;45547;-57
2023/06/19 00:37:09;;;;;;;;;6.00;6.00;;;;;23.44;59.08;100503.06;5033139;28;45836;-56
2023/06/19 00:39:35;;;;;;;;;8.00;7.40;;;;;23.50;59.30;100522.28;5035436;28;45311;-58
2023/06/19 00:42:00;;;;;;;;;10.50;9.25;;;;;23.45;59.47;100519.56;5034732;28;45286;-57
2023/06/19 00:44:26;;;;;;;;;8.00;8.00;;;;;23.45;59.48;100527.13;5034901;28;45653;-58
2023/06/19 00:46:58;;;;;;;;;6.50;5.75;;;;;23.41;59.52;100530.53;5034701;28;45637;-56
2023/06/19 00:49:25;;;;;;;;;7.00;7.00;;;;;23.25;59.68;100521.53;5034418;28;45370;-57
2023/06/19 00:51:51;;;;;;;;;7.00;5.00;;;;;23.19;59.71;100519.09;5021348;28;45826;-56
2023/06/19 00:54:17;;;;;;;;;8.00;7.00;;;;;23.26;59.86;100534.38;5027614;28;45377;-56
2023/06/19 00:56:43;;;;;;;;;6.20;6.20;;;;;23.23;60.14;100534.16;5013090;28;47201;-54
2023/06/19 00:59:12;;;;;;;;;8.50;8.50;;;;;23.26;59.94;100544.75;5048134;28;45380;-57
2023/06/19 01:01:37;;;;;;;;;9.00;9.00;;;;;23.18;60.01;100537.88;5031960;28;45416;-56
2023/06/19 01:04:03;;;;;;;;;5.00;5.00;;;;;23.17;60.12;100541.81;5034737;28;45485;-56
2023/06/19 01:06:38;;;;;;;;;8.25;8.25;;;;;23.09;60.10;100529.31;5031998;28;46442;-56
2023/06/19 01:09:05;;;;;;;;;8.20;7.60;;;;;23.19;60.12;100555.47;5033004;28;45416;-53
2023/06/19 01:11:34;;;;;;;;;8.20;8.20;;;;;23.12;59.98;100550.28;5016148;28;45420;-55
2023/06/19 01:14:09;;;;;;;;;6.40;6.40;;;;;23.10;59.95;100538.56;5017067;28;45358;-55
2023/06/19 01:16:35;;;;;;;;;8.00;8.00;;;;;23.10;59.70;100556.16;5017164;28;45699;-57
2023/06/19 01:19:00;;;;;;;;;7.00;7.00;;;;;23.10;60.02;100553.34;5016500;28;45363;-57
2023/06/19 01:21:26;;;;;;;;;10.00;8.00;;;;;23.08;60.46;100544.44;5034066;28;45400;-56
2023/06/19 01:23:51;;;;;;;;;11.75;10.50;;;;;23.04;60.15;100553.75;5034003;28;45373;-56
2023/06/19 01:26:18;;;;;;;;;9.50;7.50;;;;;23.03;60.52;100555.69;5033993;28;46259;-57
2023/06/19 01:28:44;;;;;;;;;12.00;8.80;;;;;22.96;60.30;100541.25;5033864;28;45463;-55
2023/06/19 01:31:30;;;;;;;;;7.00;7.00;;;;;23.00;60.55;100545.94;5032640;28;45291;-55
2023/06/19 01:33:56;;;;;;;;;8.80;8.00;;;;;22.99;60.30;100541.47;5018638;28;45446;-54
2023/06/19 01:36:21;;;;;;;;;8.00;7.00;;;;;22.87;60.65;100541.09;5032553;28;46363;-56
2023/06/19 01:38:47;;;;;;;;;9.00;8.25;;;;;22.83;61.09;100554.03;5035270;28;45321;-55
2023/06/19 01:41:14;;;;;;;;;8.20;6.80;;;;;22.86;61.18;100547.81;5019679;28;45372;-54
2023/06/19 01:43:40;;;;;;;;;7.20;7.20;;;;;22.86;60.83;100531.03;5020124;28;45575;-55
2023/06/19 01:46:05;;;;;;;;;13.25;9.00;;;;;22.91;60.90;100552.50;5037064;28;46631;-56
2023/06/19 01:48:31;;;;;;;;;7.75;7.75;;;;;22.88;60.70;100546.38;5037251;28;45334;-55
2023/06/19 01:50:57;;;;;;;;;11.25;11.25;;;;;22.83;61.06;100557.66;5035597;28;45440;-55
2023/06/19 01:53:22;;;;;;;;;7.00;7.00;;;;;22.75;61.33;100561.13;5036537;28;45453;-53
2023/06/19 01:55:48;;;;;;;;;7.50;7.50;;;;;22.73;61.49;100555.81;5036972;28;46322;-56
2023/06/19 01:58:13;;;;;;;;;7.00;7.00;;;;;22.75;61.24;100566.72;5035963;28;45362;-54
2023/06/19 02:00:39;;;;;;;;;7.75;7.75;;;;;22.73;61.15;100564.19;5037282;28;45259;-57
2023/06/19 02:03:04;;;;;;;;;11.50;10.00;;;;;22.71;61.14;100558.09;5017894;28;45205;-58
2023/06/19 02:05:30;;;;;;;;;12.25;8.25;;;;;22.79;61.63;100561.34;5020268;28;46079;-56
2023/06/19 02:07:56;;;;;;;;;9.00;9.00;;;;;22.80;60.92;100560.22;5037050;28;45301;-56
2023/06/19 02:10:21;;;;;;;;;9.25;9.00;;;;;22.75;61.12;100550.75;5037526;28;45312;-56
2023/06/19 02:12:47;;;;;;;;;8.75;8.00;;;;;22.77;60.87;100560.81;5019480;28;45680;-55
2023/06/19 02:15:12;;;;;;;;;9.25;9.00;;;;;22.73;60.95;100555.00;5036542;28;45866;-56
2023/06/19 02:17:38;;;;;;;;;9.50;9.50;;;;;22.67;61.10;100556.19;5037152;28;45355;-57
2023/06/19 02:20:08;;;;;;;;;8.75;8.75;;;;;22.63;61.32;100553.16;5037103;28;45334;-55
2023/06/19 02:22:34;;;;;;;;;10.20;9.40;;;;;22.65;60.78;100556.47;5037428;28;45331;-56
2023/06/19 02:25:00;;;;;;;;;9.25;9.25;;;;;22.60;61.37;100562.97;5035381;28;47861;-55
2023/06/19 02:27:25;;;;;;;;;11.75;10.75;;;;;22.61;61.20;100552.59;5035329;28;45426;-53
2023/06/19 02:29:50;;;;;;;;;9.25;8.00;;;;;22.63;61.20;100555.94;5037061;28;45294;-55
2023/06/19 02:32:16;;;;;;;;;11.00;11.00;;;;;22.62;61.26;100559.84;5035464;28;45231;-57
2023/06/19 02:34:41;;;;;;;;;16.25;12.25;;;;;22.58;61.11;100565.22;5036781;28;45698;-55
2023/06/19 02:37:08;;;;;;;;;9.75;8.50;;;;;22.59;60.92;100564.09;5032983;28;45414;-56
2023/06/19 02:39:33;;;;;;;;;12.00;10.00;;;;;22.57;61.40;100565.53;5017001;28;45331;-57
2023/06/19 02:41:59;;;;;;;;;10.75;10.00;;;;;22.45;60.93;100549.13;5015818;28;45451;-56
2023/06/19 02:44:25;;;;;;;;;9.00;8.40;;;;;22.56;61.18;100567.47;5014588;28;46468;-56
2023/06/19 02:46:50;;;;;;;;;12.25;10.00;;;;;22.55;61.26;100567.78;5016595;28;45484;-56
2023/06/19 02:49:16;;;;;;;;;12.00;11.50;;;;;22.59;61.07;100575.28;5014868;28;45437;-55
2023/06/19 02:51:41;;;;;;;;;13.75;12.25;;;;;22.60;60.98;100576.09;5015101;28;45402;-57
2023/06/19 02:54:07;;;;;;;;;11.25;11.00;;;;;22.52;61.09;100566.41;5024390;28;45538;-56
2023/06/19 02:56:32;;;;;;;;;11.00;9.00;;;;;22.62;61.17;100576.63;5015472;28;46209;-54
2023/06/19 02:58:57;;;;;;;;;13.00;12.25;;;;;22.55;61.06;100578.97;5016931;28;45310;-54
2023/06/19 03:01:24;;;;;;;;;10.25;9.00;;;;;22.52;61.27;100568.38;5041506;28;45455;-57
2023/06/19 03:03:49;;;;;;;;;11.40;11.40;;;;;22.57;61.20;100573.94;5035798;28;46677;-55
2023/06/19 03:06:15;;;;;;;;;10.25;9.25;;;;;22.56;60.80;100567.47;5025678;28;45314;-54
2023/06/19 03:08:40;;;;;;;;;10.75;9.00;;;;;22.56;60.85;100559.09;5016649;28;45394;-54
2023/06/19 03:11:06;;;;;;;;;11.00;11.00;;;;;22.55;60.90;100563.03;5016505;28;45549;-55
2023/06/19 03:13:52;;;;;;;;;12.25;10.00;;;;;22.48;61.11;100565.31;5015881;28;45992;-55
2023/06/19 03:16:18;;;;;;;;;12.20;12.20;;;;;22.42;61.21;100560.91;5016501;28;45425;-54
2023/06/19 03:18:46;;;;;;;;;12.50;10.00;;;;;22.48;61.05;100568.94;5014909;28;45324;-55
2023/06/19 03:21:13;;;;;;;;;10.00;10.00;;;;;22.52;61.12;100582.38;5026566;28;45401;-56
2023/06/19 03:23:38;;;;;;;;;11.80;9.60;;;;;22.51;60.91;100567.53;5017858;28;46314;-55
2023/06/19 03:26:03;;;;;;;;;8.75;8.75;;;;;22.50;61.25;100565.03;5035911;28;45351;-54
2023/06/19 03:28:29;;;;;;;;;9.75;8.75;;;;;22.50;61.10;100574.22;5034342;28;45247;-56
2023/06/19 03:30:55;;;;;;;;;9.00;9.00;;;;;22.48;61.00;100573.72;5029041;28;45335;-56
2023/06/19 03:33:20;;;;;;;;;12.80;11.80;;;;;22.41;61.29;100573.22;5015475;28;46346;-56
2023/06/19 03:35:46;;;;;;;;;11.25;10.75;;;;;22.39;61.35;100578.25;5014525;28;45403;-56
2023/06/19 03:38:11;;;;;;;;;10.25;9.00;;;;;22.34;61.25;100568.81;5023801;28;45190;-55
2023/06/19 03:40:37;;;;;;;;;13.50;13.50;;;;;22.33;61.42;100569.09;5035723;28;45320;-56
2023/06/19 03:43:02;;;;;;;;;7.25;7.25;;;;;22.39;61.20;100579.09;5035698;28;45342;-54
2023/06/19 03:45:28;;;;;;;;;15.75;15.50;;;;;22.27;61.33;100567.50;5033808;28;45426;-53
2023/06/19 03:47:53;;;;;;;;;13.50;12.00;;;;;22.34;61.50;100591.19;5017690;28;45324;-59
2023/06/19 03:50:19;;;;;;;;;14.25;11.00;;;;;22.32;61.58;100593.41;5034548;28;45251;-56
2023/06/19 03:52:44;;;;;;;;;12.25;11.25;;;;;22.34;61.54;100593.13;5034874;28;45432;-55
2023/06/19 03:55:10;;;;;;;;;11.25;11.25;;;;;22.32;61.27;100585.03;5035405;28;45376;-55
2023/06/19 03:57:35;;;;;;;;;10.25;10.25;;;;;22.25;61.44;100576.16;5035562;28;45385;-57
2023/06/19 04:00:01;;;;;;;;;9.50;8.50;;;;;22.21;61.71;100591.88;5035973;28;45513;-56
2023/06/19 04:02:27;;;;;;;;;11.75;10.50;;;;;22.21;62.01;100591.88;5033862;28;46354;-54
2023/06/19 04:04:53;;;;;;;;;12.40;9.20;;;;;22.19;62.01;100591.31;5035120;28;45574;-55
2023/06/19 04:07:18;;;;;;;;;16.00;15.00;;;;;22.11;61.76;100580.78;5035684;28;45922;-55
2023/06/19 04:09:44;;;;;;;;;12.25;10.25;;;;;22.07;61.74;100567.41;5035181;28;45545;-56
2023/06/19 04:12:10;;;;;;;;;12.25;11.00;;;;;22.16;61.80;100586.34;5033763;28;45423;-57
2023/06/19 04:14:35;;;;;;;;;12.25;10.00;;;;;22.18;61.91;100589.66;5035109;28;45303;-61
2023/06/19 04:17:01;;;;;;;;;13.00;11.50;;;;;22.15;61.44;100590.25;5030255;28;45353;-57
2023/06/19 04:19:26;;;;;;;;;14.25;11.50;;;;;22.23;61.88;100600.78;5014069;28;45351;-56
2023/06/19 04:21:51;;;;;;;;;14.25;12.25;;;;;22.28;61.55;100599.91;5014425;28;46107;-57
2023/06/19 04:24:17;;;;;;;;;15.00;12.00;;;;;22.34;61.38;100605.16;5030437;28;45330;-54
2023/06/19 04:26:42;;;;;;;;;13.00;11.50;;;;;22.37;61.19;100614.09;5015365;28;45403;-57
2023/06/19 04:29:08;;;;;;;;;12.50;10.75;;;;;22.32;61.38;100618.59;5014791;28;45565;-56
2023/06/19 04:31:40;;;;;;;;;12.25;10.75;;;;;22.39;61.06;100631.38;5030428;28;45728;-56
2023/06/19 04:34:06;;;;;;;;;10.20;9.20;;;;;22.38;61.11;100638.09;5014354;28;45350;-56
2023/06/19 04:36:31;;;;;;;;;11.75;11.00;;;;;22.38;61.03;100630.56;5013493;28;45409;-55
2023/06/19 04:38:58;;;;;;;;;13.25;11.75;;;;;22.33;60.81;100617.47;5028256;28;45608;-58
2023/06/19 04:41:23;;;;;;;;;18.80;18.40;;;;;22.34;60.83;100623.88;5034801;28;47408;-58
2023/06/19 04:43:49;;;;;;;;;13.50;13.50;;;;;22.37;60.91;100637.28;5034376;28;45203;-56
2023/06/19 04:46:20;;;;;;;;;14.00;13.25;;;;;22.39;61.03;100629.44;5034532;28;45373;-57
2023/06/19 04:48:50;;;;;;;;;11.40;11.40;;;;;22.37;60.96;100622.47;5020370;28;45300;-58
2023/06/19 04:51:20;;;;;;;;;12.60;11.60;;;;;22.37;60.90;100625.25;5019604;28;47215;-57
2023/06/19 04:53:45;;;;;;;;;14.80;13.80;;;;;22.18;61.55;100635.22;5034585;28;45275;-59
2023/06/19 04:56:11;;;;;;;;;13.75;12.75;;;;;22.09;61.89;100630.56;5034378;28;45279;-57
2023/06/19 04:58:43;;;;;;;;;14.00;13.25;;;;;22.19;61.84;100638.84;5034696;28;45515;-56
2023/06/19 05:01:10;;;;;;;;;19.40;17.60;;;;;22.25;61.50;100634.06;5038901;28;46260;-58
2023/06/19 05:03:35;;;;;;;;;17.60;15.60;;;;;22.25;61.55;100634.06;5033045;28;45390;-57
2023/06/19 05:06:01;;;;;;;;;15.00;12.00;;;;;22.34;61.22;100633.13;5034306;28;45458;-55
2023/06/19 05:08:26;;;;;;;;;14.00;13.00;;;;;22.39;61.06;100648.16;5034532;28;45559;-53
2023/06/19 05:10:53;;;;;;;;;13.50;11.00;;;;;22.40;60.91;100641.47;5034408;28;46331;-56
2023/06/19 05:13:19;;;;;;;;;10.60;10.40;;;;;22.39;60.73;100642.56;5033720;28;45456;-54
2023/06/19 05:15:44;;;;;;;;;14.50;13.50;;;;;22.36;60.81;100637.56;5034476;28;45401;-54
2023/06/19 05:18:10;;;;;;;;;11.75;11.50;;;;;22.34;60.88;100638.72;5034459;28;45415;-55
2023/06/19 05:20:35;;;;;;;;;16.25;15.25;;;;;22.31;60.89;100632.88;5034620;28;45656;-56
2023/06/19 05:23:00;;;;;;;;;13.25;13.25;;;;;22.33;61.04;100625.03;5034426;28;45376;-59
2023/06/19 05:25:27;;;;;;;;;14.00;13.00;;;;;22.39;60.71;100626.63;5034232;28;45379;-54
2023/06/19 05:27:52;;;;;;;;;15.00;13.00;;;;;22.41;60.72;100623.56;5034804;28;45452;-52
2023/06/19 05:30:18;;;;;;;;;16.00;12.75;;;;;22.38;60.75;100626.94;5033330;28;45484;-55
2023/06/19 05:32:43;;;;;;;;;17.75;15.50;;;;;22.06;61.52;100621.66;5033456;28;45387;-54
2023/06/19 05:35:09;;;;;;;;;16.75;15.00;;;;;22.12;61.90;100632.75;5007870;28;45343;-55
2023/06/19 05:37:35;;;;;;;;;14.25;13.50;;;;;22.16;61.43;100626.31;5035622;28;45264;-51
2023/06/19 05:40:00;;;;;;;;;15.50;15.50;;;;;22.20;61.44;100635.75;5034463;28;45948;-53
2023/06/19 05:42:26;;;;;;;;;16.50;15.25;;;;;22.24;61.28;100621.22;5034336;28;45342;-55
2023/06/19 05:44:51;;;;;;;;;16.50;16.50;;;;;22.27;61.53;100626.19;5034382;28;45440;-55
2023/06/19 05:47:19;;;;;;;;;16.00;16.00;;;;;22.31;61.33;100622.50;5049950;28;45331;-55
2023/06/19 05:49:45;;;;;;;;;15.60;14.00;;;;;22.34;61.14;100623.88;5034259;28;46022;-50
2023/06/19 05:52:10;;;;;;;;;17.00;16.00;;;;;22.19;61.27;100605.28;5021837;28;46352;-56
2023/06/19 05:54:36;;;;;;;;;15.00;14.25;;;;;22.32;61.44;100612.19;5033030;28;45423;-54
2023/06/19 05:57:01;;;;;;;;;17.00;14.50;;;;;22.44;61.22;100608.97;5035041;28;45406;-53
2023/06/19 05:59:30;;;;;;;;;18.75;15.00;;;;;22.51;60.80;100620.66;5049085;28;46847;-55
2023/06/19 06:01:56;;;;;;;;;12.00;12.00;;;;;22.57;60.54;100613.88;5033976;28;45430;-56
2023/06/19 06:04:22;;;;;;;;;16.20;14.60;;;;;22.60;60.14;100616.09;5032704;28;45542;-56
2023/06/19 06:06:47;;;;;;;;;14.00;13.75;;;;;22.62;59.95;100618.59;5034021;28;45525;-55
2023/06/19 06:09:14;;;;;;;;;14.25;14.25;;;;;22.58;60.42;100604.38;5033970;28;46418;-54
2023/06/19 06:11:39;;;;;;;;;17.20;16.00;;;;;22.63;60.24;100605.44;5034072;28;45717;-56
2023/06/19 06:14:05;;;;;;;;;20.00;16.75;;;;;22.70;60.42;100622.72;5034074;28;45460;-50
2023/06/19 06:16:31;;;;;;;;;14.00;14.00;;;;;22.76;60.44;100618.72;5033877;28;45353;-51
2023/06/19 06:18:56;;;;;;;;;17.50;15.25;;;;;22.74;60.00;100604.22;5033871;28;45917;-56
2023/06/19 06:21:22;;;;;;;;;17.00;15.75;;;;;22.84;60.31;100620.84;5034012;28;45270;-57
2023/06/19 06:23:48;;;;;;;;;18.00;16.75;;;;;22.86;60.00;100621.41;5033699;28;45523;-56
2023/06/19 06:26:14;;;;;;;;;16.25;16.25;;;;;22.86;60.19;100635.41;5035399;28;45338;-56
2023/06/19 06:28:40;;;;;;;;;20.40;16.20;;;;;22.79;60.62;100642.47;5045822;28;45025;-54
2023/06/19 06:31:06;;;;;;;;;16.00;16.00;;;;;22.69;60.61;100630.25;5051257;28;42222;-55
2023/06/19 06:33:31;;;;;;;;;18.50;17.00;;;;;22.79;60.80;100645.28;5064857;28;45330;-55
2023/06/19 06:35:57;;;;;;;;;21.25;17.50;;;;;22.79;60.69;100637.69;5046281;28;45145;-51
2023/06/19 06:38:23;;;;;;;;;20.40;19.20;;;;;22.75;60.50;100654.25;5051209;28;29772;-52
2023/06/19 06:40:48;;;;;;;;;21.00;18.00;;;;;22.72;60.91;100665.19;5051359;28;29620;-54
2023/06/19 06:43:14;;;;;;;;;18.50;18.50;;;;;22.68;61.56;100658.53;5046107;28;45267;-54
2023/06/19 06:45:43;;;;;;;;;23.50;18.75;;;;;22.64;61.48;100663.91;5046872;28;45691;-52
2023/06/19 06:48:10;;;;;;;;;18.60;17.80;;;;;22.71;61.49;100669.97;5036037;28;48434;-56
2023/06/19 06:50:36;;;;;;;;;21.60;18.60;;;;;22.77;61.21;100681.91;5037899;28;46048;-55
2023/06/19 06:53:01;;;;;;;;;19.00;19.00;;;;;22.77;60.96;100667.94;5035554;28;45495;-54
2023/06/19 06:55:27;;;;;;;;;20.25;18.25;;;;;22.80;61.21;100678.56;5031291;28;45307;-52
2023/06/19 06:57:52;;;;;;;;;21.25;19.75;;;;;22.90;61.15;100672.00;5043644;28;45581;-54
2023/06/19 07:00:18;;;;;;;;;20.25;20.00;;;;;22.94;60.48;100677.84;5040914;28;45302;-56
2023/06/19 07:02:43;;;;;;;;;21.75;21.25;;;;;22.94;60.43;100689.03;5035157;28;45384;-51
2023/06/19 07:05:09;;;;;;;;;20.75;18.25;;;;;22.94;60.67;100672.25;5036558;28;45580;-52
2023/06/19 07:07:35;;;;;;;;;17.75;17.00;;;;;22.95;60.18;100679.50;5036667;28;46567;-56
2023/06/19 07:10:01;;;;;;;;;18.25;17.00;;;;;22.93;60.05;100664.97;5036169;28;45385;-53
2023/06/19 07:12:26;;;;;;;;;19.50;17.75;;;;;23.10;59.91;100672.91;5036429;28;45504;-55
2023/06/19 07:14:55;;;;;;;;;20.75;18.75;;;;;23.19;60.00;100676.69;5036642;28;45440;-53
2023/06/19 07:17:20;;;;;;;;;25.20;22.40;;;;;23.35;59.28;100673.72;5036503;28;45426;-54
2023/06/19 07:19:46;;;;;;;;;20.75;18.75;;;;;23.46;59.43;100674.41;5035910;28;45322;-55
2023/06/19 07:22:11;;;;;;;;;23.00;18.75;;;;;23.53;59.08;100669.28;5028561;28;45327;-56
2023/06/19 07:24:36;;;;;;;;;23.00;20.75;;;;;23.50;58.79;100672.66;5040122;28;45664;-55
2023/06/19 07:27:02;;;;;;;;;19.75;18.75;;;;;23.40;59.06;100668.91;5047469;28;46716;-60
2023/06/19 07:29:27;;;;;;;;;23.50;21.50;;;;;23.33;58.92;100675.97;5034652;28;45378;-57
2023/06/19 07:31:53;;;;;;;;;24.25;22.00;;;;;23.30;58.56;100669.00;5034920;28;45402;-56
2023/06/19 07:34:19;;;;;;;;;20.50;20.50;;;;;23.31;59.56;100659.47;5035572;28;45657;-56
2023/06/19 07:36:44;;;;;;;;;22.50;21.75;;;;;23.37;59.17;100655.47;5034537;28;45420;-57
2023/06/19 07:39:10;;;;;;;;;21.75;19.25;;;;;23.33;59.28;100662.84;5037795;28;45754;-57
2023/06/19 07:41:36;;;;;;;;;20.50;19.50;;;;;23.37;58.81;100669.47;5035512;28;45445;-53
2023/06/19 07:44:01;;;;;;;;;24.20;23.20;;;;;23.39;59.12;100667.22;5035167;28;45528;-56
2023/06/19 07:46:27;;;;;;;;;25.50;23.75;;;;;23.39;58.83;100653.22;5034989;28;45484;-57
2023/06/19 07:48:52;;;;;;;;;20.75;20.50;;;;;23.53;58.46;100664.50;5035042;28;45513;-57
2023/06/19 07:51:18;;;;;;;;;30.75;29.50;;;;;23.55;58.97;100658.59;5032085;28;45445;-57
2023/06/19 07:53:43;;;;;;;;;31.50;26.50;;;;;23.58;58.37;100660.78;5033318;28;45412;-55
2023/06/19 07:56:09;;;;;;;;;25.75;23.25;;;;;23.59;58.57;100664.44;5033943;28;46397;-56
2023/06/19 07:58:35;;;;;;;;;32.25;30.00;;;;;23.54;58.53;100674.56;5016414;28;45701;-52
2023/06/19 08:01:00;;;;;;;;;28.00;24.60;;;;;23.40;58.96;100668.91;5016369;28;45325;-54
2023/06/19 08:03:27;;;;;;;;;27.75;22.75;;;;;23.49;58.96;100674.66;5033437;28;45505;-55
2023/06/19 08:05:52;;;;;;;;;27.40;24.40;;;;;23.57;58.41;100675.94;5034568;28;47040;-55
2023/06/19 08:08:18;;;;;;;;;23.00;23.00;;;;;23.67;58.33;100673.00;5034602;28;45325;-55
2023/06/19 08:10:43;;;;;;;;;28.75;26.50;;;;;23.71;58.21;100666.78;5049941;28;45703;-52
2023/06/19 08:13:11;;;;;;;;;26.50;25.75;;;;;23.62;58.12;100670.25;5049979;28;45288;-56
2023/06/19 08:15:36;;;;;;;;;22.00;20.40;;;;;23.67;57.98;100673.00;5015118;28;47491;-56
2023/06/19 08:18:02;;;;;;;;;26.25;23.25;;;;;23.71;58.26;100672.38;5032995;28;45653;-58
2023/06/19 08:20:28;;;;;;;;;27.75;24.25;;;;;23.72;57.84;100671.22;5034007;28;45476;-55
2023/06/19 08:22:53;;;;;;;;;24.00;23.50;;;;;23.70;58.04;100674.34;5032608;28;45408;-57
2023/06/19 08:25:19;;;;;;;;;32.00;27.25;;;;;23.66;58.43;100664.88;5032469;28;45914;-59
2023/06/19 08:27:45;;;;;;;;;26.50;22.75;;;;;23.71;57.39;100669.56;5014684;28;45418;-57
2023/06/19 08:30:10;;;;;;;;;25.80;22.60;;;;;23.71;57.07;100661.16;5024235;28;45346;-54
2023/06/19 08:32:36;;;;;;;;;21.50;19.50;;;;;23.75;56.66;100648.22;4985801;28;45768;-52
2023/06/19 08:35:02;;;;;;;;;23.25;19.50;;;;;23.75;56.80;100659.44;5011711;28;45625;-55
2023/06/19 08:37:28;;;;;;;;;19.00;18.40;;;;;23.77;56.80;100663.59;5001924;28;46605;-54
2023/06/19 08:39:55;;;;;;;;;14.50;13.50;;;;;23.92;56.61;100656.09;5011676;28;45376;-52
2023/06/19 08:42:22;;;;;;;;;17.20;14.00;;;;;24.05;55.45;100665.66;5012380;28;45971;-50
2023/06/19 08:44:48;;;;;;;;;15.60;13.80;;;;;24.13;55.96;100676.25;5009073;28;46761;-56
2023/06/19 08:47:14;;;;;;;;;20.00;18.25;;;;;24.26;55.64;100671.00;5005058;28;45721;-55
2023/06/19 08:49:39;;;;;;;;;20.00;18.50;;;;;24.35;55.22;100667.16;4991704;28;45478;-56
2023/06/19 08:52:06;;;;;;;;;17.00;16.00;;;;;24.41;54.60;100665.09;5011522;28;45398;-56
2023/06/19 08:54:32;;;;;;;;;20.20;17.60;;;;;24.46;54.49;100665.03;5012124;28;46423;-55
2023/06/19 08:57:04;;;;;;;;;15.00;14.25;;;;;24.46;54.11;100666.97;5013484;28;45659;-56
2023/06/19 08:59:31;;;;;;;;;14.40;14.20;;;;;24.42;53.86;100641.53;5007919;28;45418;-56
2023/06/19 09:01:57;;;;;;;;;15.00;14.60;;;;;24.56;53.94;100651.94;5012013;28;45649;-57
2023/06/19 09:04:28;;;;;;;;;17.00;12.75;;;;;24.62;53.26;100656.31;5028564;28;46561;-59
2023/06/19 09:06:57;;;;;;;;;11.40;11.40;;;;;24.70;52.65;100658.38;5013107;28;45514;-56
2023/06/19 09:09:25;;;;;;;;;10.40;10.40;;;;;24.75;53.22;100637.81;5013614;28;45334;-55
2023/06/19 09:12:01;;;;;;;;;21.60;20.40;;;;;24.89;52.55;100649.91;5011927;28;45374;-57
2023/06/19 09:14:33;;;;;;;;;18.40;15.60;;;;;24.98;52.24;100643.56;5013374;28;46333;-57
2023/06/19 09:16:59;;;;;;;;;18.00;15.40;;;;;24.99;52.39;100646.06;5011944;28;45395;-57
2023/06/19 09:19:25;;;;;;;;;14.25;11.25;;;;;25.09;52.25;100659.06;5012119;28;45412;-54
2023/06/19 09:21:50;;;;;;;;;17.75;16.75;;;;;25.13;51.83;100656.47;5013808;28;45529;-52
2023/06/19 09:24:16;;;;;;;;;14.50;12.75;;;;;25.16;51.88;100650.22;5012359;28;46462;-56
2023/06/19 09:26:41;;;;;;;;;12.75;12.75;;;;;25.12;51.81;100647.19;5013969;28;45369;-57
2023/06/19 09:29:16;;;;;;;;;17.50;13.50;;;;;25.01;52.02;100635.34;5014289;28;45479;-60
2023/06/19 09:31:42;;;;;;;;;14.20;12.80;;;;;25.06;52.01;100648.44;4997205;28;46054;-60
2023/06/19 09:34:08;;;;;;;;;14.00;11.00;;;;;25.15;51.98;100645.75;5013729;28;46043;-56
2023/06/19 09:36:34;;;;;;;;;11.40;10.00;;;;;25.29;51.88;100640.13;5014454;28;45456;-56
2023/06/19 09:39:00;;;;;;;;;10.20;10.20;;;;;25.36;51.08;100631.25;5013006;28;45498;-55
2023/06/19 09:41:26;;;;;;;;;11.00;10.00;;;;;25.53;50.41;100642.69;5013382;28;45568;-57
2023/06/19 09:43:54;;;;;;;;;11.25;10.50;;;;;25.66;50.49;100632.53;5012931;28;48288;-58
2023/06/19 09:46:19;;;;;;;;;13.60;10.40;;;;;25.73;49.97;100631.28;4997195;28;45342;-54
2023/06/19 09:48:46;;;;;;;;;10.00;10.00;;;;;25.87;49.97;100632.03;5014214;28;45304;-56
2023/06/19 09:51:21;;;;;;;;;13.40;12.80;;;;;26.01;48.90;100637.59;5014344;28;45448;-52
2023/06/19 09:53:48;;;;;;;;;10.20;10.20;;;;;26.11;48.53;100628.88;5014149;28;46229;-53
2023/06/19 09:56:14;;;;;;;;;11.80;8.20;;;;;26.19;48.85;100629.31;5013155;28;45388;-51
2023/06/19 09:58:40;;;;;;;;;13.60;11.40;;;;;26.37;48.74;100630.25;5019159;28;45484;-55
2023/06/19 10:01:06;;;;;;;;;9.40;9.40;;;;;26.47;48.09;100615.06;5026705;28;45510;-55
2023/06/19 10:03:33;;;;;;;;;10.20;10.20;;;;;26.47;47.41;100629.97;5030257;28;29815;-55
2023/06/19 10:06:00;;;;;;;;;10.20;10.20;;;;;26.42;48.00;100629.28;5031109;28;29719;-54
2023/06/19 10:08:39;;;;;;;;;10.40;9.80;;;;;26.50;47.52;100622.84;5032403;28;29583;-52
2023/06/19 10:11:04;;;;;;;;;10.00;9.80;;;;;26.45;47.13;100603.31;5030779;28;29607;-56
2023/06/19 10:13:34;;;;;;;;;9.00;9.00;;;;;26.53;47.34;100616.59;5029636;28;30523;-55
2023/06/19 10:16:00;;;;;;;;;7.80;7.20;;;;;26.59;47.05;100618.13;5032035;28;29801;-57
2023/06/19 10:18:26;;;;;;;;;9.75;8.75;;;;;26.63;47.14;100618.28;5032271;28;29482;-52
2023/06/19 10:20:55;;;;;;;;;11.40;10.60;;;;;26.44;46.26;100604.47;5032320;28;30161;-55
2023/06/19 10:23:23;;;;;;;;;10.40;9.20;;;;;26.37;46.99;100617.00;5029836;28;34448;-55
2023/06/19 10:25:55;;;;;;;;;14.00;11.80;;;;;26.45;47.43;100618.22;5030781;28;29785;-52
2023/06/19 10:28:23;;;;;;;;;11.20;8.60;;;;;26.52;46.58;100612.13;5030350;28;29556;-56
2023/06/19 10:31:01;;;;;;;;;7.80;7.80;;;;;26.55;46.46;100588.97;5032332;28;29965;-53
2023/06/19 10:33:28;;;;;;;;;10.40;8.60;;;;;26.69;46.37;100600.13;5030538;28;30652;-51
2023/06/19 10:35:53;;;;;;;;;11.80;11.80;;;;;26.56;46.81;100579.34;5030645;28;31731;-55
2023/06/19 10:38:19;;;;;;;;;9.25;8.25;;;;;26.60;46.88;100591.63;5030378;28;29565;-56
2023/06/19 10:40:45;;;;;;;;;9.75;9.75;;;;;26.69;46.80;100599.28;5026835;28;45363;-54
2023/06/19 10:43:11;;;;;;;;;11.00;11.00;;;;;26.80;46.07;100597.81;5028615;28;45323;-55
2023/06/19 10:45:36;;;;;;;;;8.60;8.00;;;;;27.01;45.39;100600.06;5006089;28;45359;-56
2023/06/19 10:48:05;;;;;;;;;8.75;7.75;;;;;27.18;44.97;100591.66;5029493;28;38561;-57
2023/06/19 10:50:41;;;;;;;;;10.20;10.20;;;;;27.32;44.94;100579.41;5031280;28;29752;-54
2023/06/19 10:53:07;;;;;;;;;9.80;9.80;;;;;27.43;44.81;100591.19;5029690;28;30318;-55
2023/06/19 10:55:32;;;;;;;;;9.00;9.00;;;;;27.46;44.40;100588.53;5013568;28;30384;-56
2023/06/19 10:57:58;;;;;;;;;10.50;10.00;;;;;27.43;44.04;100589.16;5031572;28;29258;-55
2023/06/19 11:00:30;;;;;;;;;7.00;6.25;;;;;27.51;44.22;100579.06;5029806;28;29979;-55
2023/06/19 11:02:56;;;;;;;;;10.40;10.40;;;;;27.77;43.31;100589.53;5030239;28;29666;-55
2023/06/19 11:05:23;;;;;;;;;10.40;10.40;;;;;27.83;44.29;100576.91;5030872;28;29677;-55
2023/06/19 11:07:56;;;;;;;;;12.20;12.20;;;;;27.98;43.27;100578.41;5029941;28;29722;-55
2023/06/19 11:10:22;;;;;;;;;9.60;9.60;;;;;28.04;42.44;100579.03;5030990;28;29280;-55